Time;durP1;ratioP1;P1;durP2;ratioP2;P2;SDS_P1;SDS_P2;PMS_P1;PMS_P2;Temp;Humidity;BMP_temperature;BMP_pressure;BME280_temperature;BME280_humidity;BME280_pressure;Samples;Min_cycle;Max_cycle;Signal;HPM_P1;HPM_P2
2023/01/07 00:01:46;;;;;;;5.00;4.50;;;;;;;21.32;34.05;95705.94;6169090;28;105429;-77
2023/01/07 00:04:49;;;;;;;5.30;4.80;;;;;;;21.65;34.18;95759.34;6168187;28;103118;-78
2023/01/07 00:07:53;;;;;;;6.00;4.87;;;;;;;21.59;34.55;95742.63;6173822;28;102808;-78
2023/01/07 00:10:56;;;;;;;4.63;4.20;;;;;;;21.16;34.33;95680.56;6175139;28;103212;-78
2023/01/07 00:14:01;;;;;;;4.67;4.27;;;;;;;21.65;34.05;95759.34;6143261;28;103078;-78
2023/01/07 00:17:04;;;;;;;5.00;4.50;;;;;;;21.63;34.05;95761.50;6173083;28;102943;-78
2023/01/07 00:20:08;;;;;;;4.90;4.40;;;;;;;21.62;34.23;95755.38;6171709;28;103183;-78
2023/01/07 00:23:12;;;;;;;5.23;4.67;;;;;;;21.63;34.10;95764.16;6172633;28;103850;-78
2023/01/07 00:26:17;;;;;;;5.17;4.53;;;;;;;21.62;34.11;95762.56;6165741;28;102748;-78
2023/01/07 00:29:22;;;;;;;4.97;4.57;;;;;;;21.62;34.28;95759.91;6171078;28;104408;-77
2023/01/07 00:32:49;;;;;;;5.23;4.50;;;;;;;21.62;34.20;95759.91;6171395;28;107320;-77
2023/01/07 00:35:59;;;;;;;5.40;4.40;;;;;;;21.35;34.34;95713.38;6169281;28;103662;-79
2023/01/07 00:39:13;;;;;;;4.40;4.00;;;;;;;21.34;34.13;95717.13;6170427;28;105027;-78
2023/01/07 00:45:38;;;;;;;4.33;4.03;;;;;;;21.61;34.13;95768.97;6171766;28;102667;-78
2023/01/07 00:48:41;;;;;;;4.87;4.37;;;;;;;21.59;33.65;95760.47;6166380;28;103716;-79
2023/01/07 00:51:44;;;;;;;4.90;4.20;;;;;;;21.37;34.18;95735.19;6172203;28;103514;-78
2023/01/07 00:54:47;;;;;;;5.07;4.60;;;;;;;21.60;34.15;95764.72;6171613;28;103667;-78
2023/01/07 00:57:52;;;;;;;4.43;4.03;;;;;;;21.58;33.86;95765.03;6171921;28;104057;-78
2023/01/07 01:00:58;;;;;;;5.37;4.77;;;;;;;21.35;34.10;95742.66;6165176;28;103351;-79
2023/01/07 01:04:01;;;;;;;5.70;4.17;;;;;;;21.26;34.15;95725.72;6169958;28;104259;-78
2023/01/07 01:07:05;;;;;;;3.73;3.43;;;;;;;21.42;34.08;95764.41;6170598;28;103007;-78
2023/01/07 01:10:10;;;;;;;4.73;4.30;;;;;;;21.55;34.00;95791.44;6166697;28;103261;-79
2023/01/07 01:13:15;;;;;;;4.27;3.87;;;;;;;21.39;34.06;95767.63;6169048;28;103386;-79
2023/01/07 01:16:21;;;;;;;5.57;4.00;;;;;;;21.56;33.78;95791.16;6170611;28;104890;-78
2023/01/07 01:19:27;;;;;;;4.20;3.80;;;;;;;21.55;34.00;95796.75;6148583;28;103099;-78
2023/01/07 01:22:30;;;;;;;4.07;3.67;;;;;;;21.22;33.88;95738.00;6163688;28;103512;-79
2023/01/07 01:25:34;;;;;;;3.90;3.60;;;;;;;21.55;33.59;95783.44;6168802;28;102961;-78
2023/01/07 01:28:38;;;;;;;4.33;4.00;;;;;;;21.55;33.87;95783.44;6169982;28;103311;-79
2023/01/07 01:31:42;;;;;;;3.77;3.30;;;;;;;21.45;33.70;95776.34;6170026;28;106162;-78
2023/01/07 01:34:46;;;;;;;4.30;3.90;;;;;;;21.20;33.28;95726.84;6162778;28;103368;-78
2023/01/07 01:37:49;;;;;;;3.70;3.40;;;;;;;21.39;33.83;95759.66;6170593;28;104126;-79
2023/01/07 01:40:52;;;;;;;3.90;3.60;;;;;;;21.54;33.31;95779.19;6170310;28;104847;-78
2023/01/07 01:43:56;;;;;;;4.27;3.87;;;;;;;21.54;33.31;95782.66;6168461;28;103295;-78
2023/01/07 01:47:02;;;;;;;4.07;3.67;;;;;;;21.54;33.88;95781.84;6168726;28;106274;-79
2023/01/07 01:50:13;;;;;;;4.07;3.67;;;;;;;21.35;33.70;95755.97;6171586;28;102922;-78
2023/01/07 01:53:20;;;;;;;3.80;3.50;;;;;;;21.51;33.29;95776.03;6170320;28;103023;-78
2023/01/07 01:56:27;;;;;;;3.43;3.13;;;;;;;21.52;33.81;95768.81;6162227;28;103078;-78
2023/01/07 01:59:34;;;;;;;4.10;3.80;;;;;;;21.50;33.58;95766.41;6169230;28;103513;-79
2023/01/07 02:02:44;;;;;;;3.83;3.47;;;;;;;21.24;33.38;95729.72;6169782;28;104970;-79
2023/01/07 02:05:48;;;;;;;3.50;3.20;;;;;;;21.27;33.40;95731.81;6170798;28;103309;-79
2023/01/07 02:08:51;;;;;;;4.30;3.40;;;;;;;21.38;33.37;95754.59;6163338;28;103663;-78
2023/01/07 02:12:03;;;;;;;3.70;3.40;;;;;;;20.07;33.16;95550.81;6169520;28;103637;-79
2023/01/07 02:15:12;;;;;;;3.53;3.23;;;;;;;21.49;33.11;95767.50;6170604;28;104520;-79
2023/01/07 02:18:29;;;;;;;3.73;3.23;;;;;;;21.32;33.43;95740.53;6167498;28;105284;-80
2023/01/07 02:21:46;;;;;;;3.60;3.30;;;;;;;21.40;33.54;95745.25;6169129;28;103616;-79
2023/01/07 02:25:24;;;;;;;3.97;3.57;;;;;;;21.40;33.14;95744.47;6170256;28;104568;-79
2023/01/07 02:28:52;;;;;;;3.83;3.53;;;;;;;21.50;33.08;95752.31;6169251;28;103635;-78
2023/01/07 02:32:24;;;;;;;4.10;3.70;;;;;;;21.37;33.18;95743.16;6163744;28;103622;-78
2023/01/07 02:35:44;;;;;;;4.33;3.30;;;;;;;21.49;33.22;95756.84;6168868;28;103038;-78
2023/01/07 02:39:10;;;;;;;3.27;2.97;;;;;;;21.49;33.05;95751.53;6168245;28;103129;-78
2023/01/07 02:42:21;;;;;;;3.20;2.90;;;;;;;21.35;33.26;95724.03;6159612;28;103083;-79
2023/01/07 02:45:29;;;;;;;3.23;2.90;;;;;;;21.24;33.12;95713.75;6169289;28;103436;-78
2023/01/07 02:48:37;;;;;;;3.37;3.07;;;;;;;21.48;33.26;95747.28;6169577;28;103913;-78
2023/01/07 02:51:42;;;;;;;3.30;2.90;;;;;;;21.49;33.40;95756.84;6171974;28;103597;-80
2023/01/07 02:54:52;;;;;;;3.33;3.10;;;;;;;21.49;32.91;95754.19;6168607;28;103299;-80
2023/01/07 02:58:23;;;;;;;3.97;2.73;;;;;;;21.50;32.87;95755.78;6173413;28;102920;-79
2023/01/07 03:01:41;;;;;;;3.23;3.00;;;;;;;21.50;32.70;95766.41;6170012;28;103323;-79
2023/01/07 03:05:01;;;;;;;3.70;2.70;;;;;;;21.49;32.82;95756.84;6163480;28;104460;-78
2023/01/07 03:08:22;;;;;;;4.03;3.73;;;;;;;21.05;32.74;95692.41;6172555;28;103397;-79
2023/01/07 03:11:29;;;;;;;2.90;2.60;;;;;;;21.48;32.98;95763.25;6173547;28;102589;-78
2023/01/07 03:14:40;;;;;;;3.30;2.73;;;;;;;21.49;32.72;95764.84;6172653;28;104024;-80
2023/01/07 03:17:48;;;;;;;3.27;2.97;;;;;;;21.48;32.81;95760.59;6171155;28;102679;-78
2023/01/07 03:20:57;;;;;;;3.83;3.30;;;;;;;21.42;32.86;95745.75;6174330;28;103037;-79
2023/01/07 03:24:02;;;;;;;2.70;2.47;;;;;;;21.47;32.78;95763.53;6173770;28;103907;-79
2023/01/07 03:27:09;;;;;;;3.33;3.03;;;;;;;21.47;32.79;95766.19;6167986;28;105940;-79
2023/01/07 03:30:16;;;;;;;3.17;2.97;;;;;;;21.41;33.12;95752.16;6174430;28;103932;-78
2023/01/07 03:33:24;;;;;;;2.70;2.50;;;;;;;21.23;32.89;95728.16;6174024;28;103272;-79
2023/01/07 03:36:36;;;;;;;3.10;2.80;;;;;;;21.39;32.86;95754.31;6174237;28;104312;-78
2023/01/07 03:39:41;;;;;;;2.50;2.30;;;;;;;21.20;32.89;95729.50;6166838;28;104149;-78
2023/01/07 03:42:47;;;;;;;2.60;2.40;;;;;;;21.45;33.04;95768.34;6171411;28;104100;-79
2023/01/07 03:45:53;;;;;;;4.20;2.73;;;;;;;21.31;32.47;95738.94;6173322;28;102911;-79
2023/01/07 03:48:57;;;;;;;2.50;2.30;;;;;;;20.76;32.56;95663.94;6171032;28;102831;-79
2023/01/07 03:52:01;;;;;;;3.30;2.90;;;;;;;21.44;32.92;95767.56;6169484;28;103357;-79
2023/01/07 03:55:06;;;;;;;3.77;2.80;;;;;;;21.09;32.48;95722.69;6173368;28;107707;-79
2023/01/07 03:58:09;;;;;;;3.10;2.80;;;;;;;21.26;32.34;95746.22;6172786;28;103326;-79
2023/01/07 04:01:13;;;;;;;2.80;2.60;;;;;;;21.34;32.41;95764.22;6165749;28;103792;-79
2023/01/07 04:04:19;;;;;;;4.53;3.30;;;;;;;21.44;32.42;95786.22;6171881;28;103285;-79
2023/01/07 04:07:24;;;;;;;3.30;3.00;;;;;;;21.31;32.71;95764.78;6172195;28;103211;-78
2023/01/07 04:10:28;;;;;;;3.10;2.77;;;;;;;21.33;32.29;95776.72;6172521;28;103003;-79
2023/01/07 04:13:32;;;;;;;3.37;3.07;;;;;;;21.14;32.44;95743.94;6165788;28;103285;-79
2023/01/07 04:16:36;;;;;;;3.30;3.10;;;;;;;21.44;32.35;95796.84;6173423;28;103902;-78
2023/01/07 04:19:40;;;;;;;3.17;2.87;;;;;;;21.38;32.41;95782.03;6171760;28;103461;-79
2023/01/07 04:22:44;;;;;;;3.87;3.40;;;;;;;21.44;32.35;95790.75;6170132;28;103319;-79
2023/01/07 04:25:49;;;;;;;3.37;3.10;;;;;;;21.05;32.39;95730.47;6169346;28;103816;-79
2023/01/07 04:28:52;;;;;;;5.00;3.40;;;;;;;21.44;32.48;95798.72;6171301;28;104225;-78
2023/01/07 04:31:56;;;;;;;3.20;2.90;;;;;;;21.33;32.04;95786.59;6172980;28;103223;-79
2023/01/07 04:35:02;;;;;;;3.60;3.30;;;;;;;21.45;32.54;95792.31;6170857;28;103070;-80
2023/01/07 04:38:07;;;;;;;3.37;3.17;;;;;;;21.40;32.07;95793.19;6176408;28;105916;-80
2023/01/07 04:41:10;;;;;;;4.10;3.03;;;;;;;21.46;32.02;95801.91;6175134;28;102775;-79
2023/01/07 04:44:16;;;;;;;3.83;3.50;;;;;;;21.15;32.40;95756.16;6174780;28;106099;-80
2023/01/07 04:47:21;;;;;;;4.50;3.73;;;;;;;21.44;32.50;95794.19;6168110;28;102691;-80
2023/01/07 04:50:24;;;;;;;3.50;3.20;;;;;;;21.44;32.06;95790.75;6175133;28;107542;-80
2023/01/07 04:53:29;;;;;;;4.10;3.80;;;;;;;21.45;32.31;95800.31;6174780;28;103125;-80
2023/01/07 04:56:32;;;;;;;4.10;3.70;;;;;;;19.45;32.24;95499.28;6175727;28;104520;-81
2023/01/07 04:59:35;;;;;;;3.57;3.27;;;;;;;21.41;32.08;95800.09;6167816;28;103349;-78
2023/01/07 05:02:38;;;;;;;4.03;3.73;;;;;;;21.10;32.78;95733.06;6168887;28;103425;-78
2023/01/07 05:05:42;;;;;;;3.67;3.37;;;;;;;21.35;32.21;95777.28;6166804;28;102942;-79
2023/01/07 05:08:49;;;;;;;3.80;3.50;;;;;;;21.52;32.18;95806.91;6160439;28;103526;-79
2023/01/07 05:11:53;;;;;;;3.53;3.23;;;;;;;21.08;32.08;95739.75;6167142;28;103017;-78
2023/01/07 05:14:56;;;;;;;3.20;2.90;;;;;;;21.53;31.77;95805.03;6165828;28;103225;-78
2023/01/07 05:17:59;;;;;;;3.37;3.07;;;;;;;21.44;31.95;95796.84;6165795;28;103225;-78
2023/01/07 05:21:02;;;;;;;3.90;3.60;;;;;;;21.52;32.06;95801.56;6160073;28;103024;-78
2023/01/07 05:24:07;;;;;;;3.50;3.20;;;;;;;21.51;32.29;95805.31;6168353;28;103676;-79
2023/01/07 05:27:11;;;;;;;3.30;3.00;;;;;;;21.50;32.11;95802.91;6166793;28;103548;-77
2023/01/07 05:30:14;;;;;;;3.20;2.90;;;;;;;21.50;31.87;95814.34;6166712;28;104264;-78
2023/01/07 05:33:17;;;;;;;3.63;3.17;;;;;;;21.50;31.87;95810.91;6162001;28;103233;-78
2023/01/07 05:36:20;;;;;;;5.17;2.90;;;;;;;21.27;31.69;95785.84;6169754;28;103066;-78
2023/01/07 05:39:25;;;;;;;3.40;3.10;;;;;;;21.49;31.74;95820.75;6158608;28;103332;-78
2023/01/07 05:42:29;;;;;;;3.50;3.20;;;;;;;21.28;31.96;95790.09;6164810;28;103138;-79
2023/01/07 05:45:32;;;;;;;3.40;3.10;;;;;;;21.47;32.36;95819.47;6166130;28;102856;-79
2023/01/07 05:48:35;;;;;;;3.20;2.80;;;;;;;21.47;31.99;95814.94;6169595;28;102712;-79
2023/01/07 05:51:38;;;;;;;3.13;2.83;;;;;;;21.48;32.16;95813.06;6169099;28;106027;-78
2023/01/07 05:54:43;;;;;;;2.93;2.67;;;;;;;21.40;32.07;95800.38;6162400;28;103446;-78
2023/01/07 05:57:46;;;;;;;2.70;2.50;;;;;;;21.47;32.00;95806.94;6168004;28;103054;-78
2023/01/07 06:00:49;;;;;;;3.13;2.93;;;;;;;21.30;31.77;95790.59;6166527;28;102775;-78
2023/01/07 06:03:53;;;;;;;3.10;2.80;;;;;;;21.47;32.07;95822.91;6167892;28;103390;-78
2023/01/07 06:06:56;;;;;;;3.00;2.70;;;;;;;21.30;31.56;95795.13;6159852;28;103853;-77
2023/01/07 06:10:01;;;;;;;3.50;3.20;;;;;;;21.46;31.99;95825.88;6168078;28;105975;-78
2023/01/07 06:13:05;;;;;;;3.00;2.80;;;;;;;21.37;31.78;95808.94;6167353;28;105319;-79
2023/01/07 06:16:09;;;;;;;3.00;2.57;;;;;;;21.10;31.69;95772.19;6164051;28;103543;-78
2023/01/07 06:19:13;;;;;;;3.47;3.17;;;;;;;21.48;31.81;95835.16;6161663;28;104439;-78
2023/01/07 06:22:16;;;;;;;2.60;2.40;;;;;;;21.31;31.77;95800.19;6143616;28;104022;-78
2023/01/07 06:25:20;;;;;;;3.03;2.83;;;;;;;21.44;31.71;95828.00;6160497;28;104327;-81
2023/01/07 06:28:24;;;;;;;3.47;3.17;;;;;;;21.17;32.03;95786.75;6161902;28;103141;-78
2023/01/07 06:31:28;;;;;;;3.77;3.47;;;;;;;21.50;31.66;95838.31;6164513;28;103202;-77
2023/01/07 06:34:31;;;;;;;3.87;3.00;;;;;;;21.50;31.72;95838.31;6166874;28;103300;-77
2023/01/07 06:37:35;;;;;;;4.00;3.60;;;;;;;21.35;31.68;95817.19;6170501;28;103229;-79
2023/01/07 06:40:44;;;;;;;4.33;3.73;;;;;;;20.63;32.11;95712.47;6165386;28;105890;-84
2023/01/07 06:43:50;;;;;;;4.40;4.00;;;;;;;21.50;32.54;95843.66;6177761;28;104954;-84
2023/01/07 06:46:54;;;;;;;7.97;6.13;;;;;;;21.44;32.58;95841.34;6159962;28;104035;-82
2023/01/07 06:49:57;;;;;;;14.00;7.37;;;;;;;21.42;32.52;95851.47;6176910;28;102798;-80
2023/01/07 06:53:01;;;;;;;10.97;6.50;;;;;;;21.43;32.38;95847.72;6172498;28;102755;-87
2023/01/07 06:56:06;;;;;;;7.47;6.73;;;;;;;21.43;32.27;95845.88;6170733;28;103350;-84
2023/01/07 06:59:10;;;;;;;10.07;8.70;;;;;;;21.44;31.89;95851.97;6180225;28;105110;-83
2023/01/07 07:02:18;;;;;;;11.10;7.80;;;;;;;21.37;32.24;95838.22;6177588;28;103203;-83
2023/01/07 07:05:23;;;;;;;8.87;7.20;;;;;;;21.71;31.63;95843.47;6176917;28;103471;-83
2023/01/07 07:08:26;;;;;;;12.30;8.77;;;;;;;22.56;29.97;95843.47;6179969;28;103982;-82
2023/01/07 07:11:31;;;;;;;10.03;9.10;;;;;;;22.38;30.25;95820.25;6178961;28;105697;-77
2023/01/07 07:14:35;;;;;;;9.13;8.17;;;;;;;22.53;30.21;95852.06;6154458;28;103227;-81
2023/01/07 07:17:45;;;;;;;10.43;9.33;;;;;;;22.64;29.59;95852.72;6171003;28;105441;-82
2023/01/07 07:20:48;;;;;;;9.70;8.80;;;;;;;22.70;29.46;95854.25;6178970;28;104099;-79
2023/01/07 07:23:53;;;;;;;9.83;8.50;;;;;;;21.92;29.31;95726.78;6178960;28;102610;-81
2023/01/07 07:26:58;;;;;;;12.03;9.30;;;;;;;21.80;30.21;95737.84;6173984;28;106965;-79
2023/01/07 07:30:10;;;;;;;12.87;11.57;;;;;;;22.39;30.56;95859.97;6175761;28;103689;-78
2023/01/07 07:33:14;;;;;;;12.47;11.17;;;;;;;21.56;30.28;95742.41;6175965;28;103186;-79
2023/01/07 07:36:18;;;;;;;11.50;10.37;;;;;;;21.81;30.90;95798.03;6158684;28;104913;-79
2023/01/07 07:39:22;;;;;;;15.30;11.13;;;;;;;22.03;30.72;95818.88;6174345;28;107454;-75
2023/01/07 07:42:30;;;;;;;15.87;10.90;;;;;;;22.18;30.73;95849.84;6175215;28;105455;-78
2023/01/07 07:45:57;;;;;;;11.40;10.13;;;;;;;22.07;31.25;95833.19;6173055;28;103157;-80
2023/01/07 07:49:02;;;;;;;11.17;10.03;;;;;;;22.19;31.20;95849.59;6172109;28;104888;-79
2023/01/07 07:52:06;;;;;;;14.17;11.47;;;;;;;21.98;31.02;95817.03;6174548;28;104327;-80
2023/01/07 07:55:14;;;;;;;13.30;9.13;;;;;;;22.21;31.12;95843.97;6175991;28;104348;-78
2023/01/07 07:58:29;;;;;;;11.23;9.77;;;;;;;22.21;31.87;95841.28;6160043;28;103522;-80
2023/01/07 08:01:33;;;;;;;14.53;9.90;;;;;;;21.38;31.56;95718.13;6173485;28;102773;-79
2023/01/07 08:04:39;;;;;;;12.17;10.47;;;;;;;21.46;31.44;95727.34;6175372;28;104026;-80
2023/01/07 08:07:42;;;;;;;10.30;9.30;;;;;;;21.71;31.39;95744.91;6178734;28;103042;-84
2023/01/07 08:10:46;;;;;;;11.73;9.07;;;;;;;22.32;31.37;95827.53;6173494;28;103512;-78
2023/01/07 08:13:52;;;;;;;14.60;10.37;;;;;;;22.43;31.47;95844.19;6179342;28;102838;-80
2023/01/07 08:16:55;;;;;;;11.47;9.37;;;;;;;22.36;31.13;95817.09;6179585;28;103810;-80
2023/01/07 08:19:59;;;;;;;11.07;8.83;;;;;;;22.59;31.34;95853.59;6179465;28;102879;-79
2023/01/07 08:23:04;;;;;;;16.20;8.80;;;;;;;22.60;31.48;95854.38;6172904;28;102583;-78
2023/01/07 08:26:08;;;;;;;10.53;8.93;;;;;;;22.62;31.40;95854.88;6178918;28;102817;-79
2023/01/07 08:29:12;;;;;;;9.63;8.73;;;;;;;22.45;31.31;95825.22;6178974;28;103333;-79
2023/01/07 08:32:16;;;;;;;8.60;7.77;;;;;;;22.51;31.60;95829.41;6180341;28;104315;-79
2023/01/07 08:35:20;;;;;;;9.83;8.80;;;;;;;22.51;31.29;95829.41;6173973;28;103282;-79
2023/01/07 08:38:23;;;;;;;8.23;7.43;;;;;;;22.14;31.13;95782.97;6180760;28;102986;-79
2023/01/07 08:41:27;;;;;;;8.20;7.40;;;;;;;22.63;31.45;95848.47;6183545;28;104715;-79
2023/01/07 08:44:33;;;;;;;11.73;8.50;;;;;;;22.63;31.49;95843.91;6180832;28;103526;-79
2023/01/07 08:47:37;;;;;;;9.00;8.10;;;;;;;22.42;31.47;95813.25;6181937;28;103156;-78
2023/01/07 08:50:40;;;;;;;9.07;8.00;;;;;;;22.63;31.24;95845.78;6182649;28;102526;-79
2023/01/07 08:53:44;;;;;;;9.60;8.67;;;;;;;22.50;31.27;95830.47;6183678;28;102508;-80
2023/01/07 08:56:50;;;;;;;8.93;8.10;;;;;;;22.61;31.21;95834.63;6177592;28;103404;-79
2023/01/07 08:59:54;;;;;;;9.10;8.00;;;;;;;22.61;31.56;95835.41;6182616;28;104967;-78
2023/01/07 09:02:58;;;;;;;8.37;7.47;;;;;;;22.28;31.79;95793.72;6182980;28;103202;-80
2023/01/07 09:06:02;;;;;;;8.10;7.40;;;;;;;22.27;31.35;95789.47;6182103;28;102686;-79
2023/01/07 09:09:05;;;;;;;8.20;7.50;;;;;;;22.34;31.62;95788.03;6178616;28;103360;-79
2023/01/07 09:12:09;;;;;;;7.63;6.93;;;;;;;22.57;31.38;95817.63;6183018;28;103139;-79
2023/01/07 09:15:14;;;;;;;7.93;7.23;;;;;;;22.48;31.52;95798.75;6182237;28;103638;-79
2023/01/07 09:18:17;;;;;;;8.53;7.63;;;;;;;22.56;31.71;95811.47;6179704;28;103632;-79
2023/01/07 09:21:21;;;;;;;8.17;7.43;;;;;;;22.52;32.05;95815.00;6161397;28;105380;-79
2023/01/07 09:24:25;;;;;;;8.57;7.77;;;;;;;22.52;31.39;95805.13;6182725;28;102911;-79
2023/01/07 09:27:28;;;;;;;8.13;7.33;;;;;;;22.39;31.48;95774.63;6183360;28;102633;-79
2023/01/07 09:30:36;;;;;;;8.30;7.50;;;;;;;22.54;31.71;95792.28;6177890;28;102854;-79
2023/01/07 09:33:40;;;;;;;9.70;8.00;;;;;;;22.57;31.77;95791.75;6180970;28;102626;-79
2023/01/07 09:36:43;;;;;;;8.27;7.47;;;;;;;22.48;31.54;95768.63;6164184;28;103254;-79
2023/01/07 09:39:47;;;;;;;8.50;7.60;;;;;;;22.55;31.27;95772.53;6177562;28;102592;-80
2023/01/07 09:42:58;;;;;;;8.10;7.20;;;;;;;22.24;31.76;95715.41;6173197;28;102686;-79
2023/01/07 09:46:07;;;;;;;7.47;6.73;;;;;;;22.63;31.70;95768.44;6177022;28;102659;-79
2023/01/07 09:49:18;;;;;;;7.73;7.03;;;;;;;22.62;31.88;95756.97;6177198;28;104673;-79
2023/01/07 09:52:27;;;;;;;9.83;6.93;;;;;;;22.65;31.40;95755.59;6175687;28;106477;-80
2023/01/07 09:55:35;;;;;;;8.17;7.40;;;;;;;22.64;31.61;95738.78;6175465;28;103439;-79
2023/01/07 09:58:47;;;;;;;7.70;7.00;;;;;;;22.52;31.86;95713.66;6175975;28;102932;-79
2023/01/07 10:01:58;;;;;;;8.40;7.60;;;;;;;22.50;31.50;95703.25;6176257;28;103073;-80
2023/01/07 10:05:15;;;;;;;8.50;7.73;;;;;;;22.44;31.58;95691.09;6171533;28;106396;-79
2023/01/07 10:08:30;;;;;;;8.10;7.10;;;;;;;22.66;31.26;95711.81;6178093;28;102620;-79
2023/01/07 10:11:51;;;;;;;7.67;6.97;;;;;;;22.77;31.53;95721.25;6178502;28;103486;-80
2023/01/07 10:15:33;;;;;;;7.40;6.60;;;;;;;22.76;31.88;95714.31;6177405;28;104306;-78
2023/01/07 10:18:58;;;;;;;7.50;6.80;;;;;;;22.81;31.31;95710.78;6170846;28;103069;-79
2023/01/07 10:22:15;;;;;;;7.57;6.87;;;;;;;22.81;31.49;95700.88;6179650;28;102406;-80
2023/01/07 10:25:22;;;;;;;8.00;7.20;;;;;;;22.80;31.88;95703.84;6177835;28;103109;-79
2023/01/07 10:28:36;;;;;;;7.33;6.63;;;;;;;22.65;31.46;95671.00;6154440;28;102800;-79
2023/01/07 10:31:40;;;;;;;7.20;6.50;;;;;;;22.82;31.27;95686.47;6178373;28;102730;-80
2023/01/07 10:34:47;;;;;;;6.80;6.20;;;;;;;22.83;31.53;95684.56;6178689;28;103056;-80
2023/01/07 10:37:52;;;;;;;7.20;6.60;;;;;;;22.76;31.82;95668.97;6174583;28;104355;-79
2023/01/07 10:40:59;;;;;;;7.40;6.53;;;;;;;22.82;31.91;95677.66;6171290;28;103521;-80
2023/01/07 10:44:50;;;;;;;7.10;6.50;;;;;;;22.74;31.44;95655.13;6178764;28;102496;-80
2023/01/07 10:48:24;;;;;;;7.00;6.30;;;;;;;22.80;31.53;95661.94;6177418;28;102472;-79
2023/01/07 10:52:02;;;;;;;8.20;7.40;;;;;;;22.82;31.92;95661.66;6168566;28;103062;-79
2023/01/07 10:55:21;;;;;;;7.03;6.33;;;;;;;22.64;31.66;95628.63;6175330;28;107207;-79
2023/01/07 10:58:27;;;;;;;6.70;6.10;;;;;;;22.82;31.92;95654.44;6175933;28;104201;-79
2023/01/07 11:01:34;;;;;;;7.07;6.47;;;;;;;22.76;31.55;95633.50;6170536;28;102697;-80
2023/01/07 11:04:38;;;;;;;6.97;6.30;;;;;;;22.81;31.54;95636.06;6176165;28;103918;-80
2023/01/07 11:07:48;;;;;;;7.10;6.50;;;;;;;22.80;31.87;95631.81;6177371;28;103191;-80
2023/01/07 11:10:51;;;;;;;6.47;5.93;;;;;;;22.77;31.91;95624.41;6178401;28;103328;-79
2023/01/07 11:13:59;;;;;;;7.03;6.43;;;;;;;22.73;31.69;95623.41;6171320;28;103454;-80
2023/01/07 11:17:08;;;;;;;7.57;6.60;;;;;;;22.79;32.27;95625.69;6176563;28;103084;-81
2023/01/07 11:20:12;;;;;;;6.93;6.23;;;;;;;22.77;31.79;95617.19;6178602;28;102600;-80
2023/01/07 11:23:29;;;;;;;6.77;6.07;;;;;;;22.76;32.34;95614.81;6175111;28;106780;-79
2023/01/07 11:26:33;;;;;;;6.40;5.80;;;;;;;22.65;31.79;95593.66;6171323;28;103305;-79
2023/01/07 11:29:41;;;;;;;6.60;6.00;;;;;;;22.65;32.23;95593.66;6177499;28;102698;-80
2023/01/07 11:32:56;;;;;;;7.10;6.40;;;;;;;22.69;32.17;95597.31;6179079;28;102809;-80
2023/01/07 11:35:59;;;;;;;6.53;5.83;;;;;;;22.57;32.18;95578.34;6152376;28;105781;-79
2023/01/07 11:39:20;;;;;;;8.13;5.90;;;;;;;22.56;32.31;95582.06;6177464;28;106106;-79
2023/01/07 11:42:39;;;;;;;5.90;5.40;;;;;;;22.53;32.54;95563.19;6177399;28;106888;-80
2023/01/07 11:45:51;;;;;;;5.80;5.30;;;;;;;22.50;32.36;95564.56;6176569;28;105250;-79
2023/01/07 11:49:23;;;;;;;6.30;5.77;;;;;;;22.52;32.10;95564.28;6170061;28;104671;-80
2023/01/07 11:52:26;;;;;;;5.60;5.10;;;;;;;22.33;32.52;95533.13;6173905;28;105196;-79
2023/01/07 11:55:31;;;;;;;5.43;4.97;;;;;;;22.59;32.39;95570.03;6182209;28;103052;-78
2023/01/07 11:58:36;;;;;;;6.30;5.80;;;;;;;22.58;32.10;95558.59;6176015;28;104786;-79
2023/01/07 12:01:42;;;;;;;6.07;5.57;;;;;;;22.56;32.71;95555.38;6182021;28;102839;-79
2023/01/07 12:04:46;;;;;;;5.90;5.43;;;;;;;22.52;32.27;95553.63;6180747;28;107152;-79
2023/01/07 12:07:51;;;;;;;5.83;5.30;;;;;;;22.49;32.74;95552.31;6182105;28;105653;-79
2023/01/07 12:10:58;;;;;;;6.07;5.57;;;;;;;22.50;32.65;95545.09;6175972;28;103410;-79
2023/01/07 12:14:08;;;;;;;5.80;5.30;;;;;;;22.33;32.64;95514.47;6180549;28;102599;-79
2023/01/07 12:17:16;;;;;;;5.90;5.40;;;;;;;22.47;32.28;95540.34;6178829;28;102849;-80
2023/01/07 12:20:47;;;;;;;5.80;5.20;;;;;;;22.44;32.79;95533.75;6173675;28;102806;-79
2023/01/07 12:24:04;;;;;;;6.07;5.50;;;;;;;22.27;32.63;95502.31;6174842;28;105197;-80
2023/01/07 12:27:21;;;;;;;5.80;5.30;;;;;;;22.45;32.88;95529.19;6173464;28;103642;-79
2023/01/07 12:30:37;;;;;;;6.13;5.63;;;;;;;22.38;32.79;95505.59;6172951;28;105337;-79
2023/01/07 12:33:52;;;;;;;5.30;4.80;;;;;;;22.28;32.14;95489.78;6165380;28;105811;-80
2023/01/07 12:37:04;;;;;;;6.03;5.50;;;;;;;22.39;32.56;95507.97;6173671;28;103608;-80
2023/01/07 12:40:21;;;;;;;5.60;5.10;;;;;;;22.34;32.39;95488.59;6170977;28;103232;-80
2023/01/07 12:43:32;;;;;;;5.70;5.20;;;;;;;22.53;32.10;95512.53;6166597;28;104496;-80
2023/01/07 12:46:39;;;;;;;4.90;4.50;;;;;;;22.49;32.61;95514.97;6172156;28;104454;-80
2023/01/07 12:49:50;;;;;;;5.87;5.37;;;;;;;22.49;32.59;95508.84;6172749;28;106288;-80
2023/01/07 12:52:58;;;;;;;5.90;5.30;;;;;;;22.49;32.83;95514.19;6172629;28;103007;-80
2023/01/07 12:56:07;;;;;;;5.50;5.00;;;;;;;22.30;32.46;95487.63;6147491;28;103060;-80
2023/01/07 12:59:18;;;;;;;5.63;5.13;;;;;;;22.45;32.49;95511.31;6172781;28;105801;-80
2023/01/07 13:02:53;;;;;;;6.07;5.57;;;;;;;22.45;32.81;95507.88;6172488;28;105159;-80
2023/01/07 13:06:02;;;;;;;5.23;4.80;;;;;;;22.42;32.75;95509.25;6165268;28;102996;-79
2023/01/07 13:09:16;;;;;;;4.80;4.40;;;;;;;21.92;32.41;95439.03;6172262;28;104210;-80
2023/01/07 13:12:43;;;;;;;5.40;4.90;;;;;;;22.21;32.53;95484.06;6172096;28;102831;-80
2023/01/07 13:15:49;;;;;;;5.30;4.80;;;;;;;22.36;33.11;95502.44;6172034;28;103270;-80
2023/01/07 13:18:53;;;;;;;5.10;4.60;;;;;;;22.34;33.10;95505.38;6165753;28;103657;-80
2023/01/07 13:21:56;;;;;;;4.53;4.10;;;;;;;22.32;32.78;95506.78;6171702;28;102683;-80
2023/01/07 13:25:14;;;;;;;4.90;4.40;;;;;;;22.28;32.66;95506.56;6171473;28;103314;-80
2023/01/07 13:28:44;;;;;;;4.97;4.57;;;;;;;22.28;32.68;95505.78;6168499;28;103360;-79
2023/01/07 13:32:14;;;;;;;5.13;4.63;;;;;;;22.26;32.53;95506.09;6171138;28;103885;-80
2023/01/07 13:35:36;;;;;;;5.30;4.80;;;;;;;22.04;32.73;95474.78;6172388;28;107254;-80
2023/01/07 13:39:00;;;;;;;4.73;4.30;;;;;;;22.21;33.05;95505.41;6170266;28;103170;-80
2023/01/07 13:42:19;;;;;;;5.30;4.80;;;;;;;22.19;32.76;95502.25;6160962;28;102714;-80
2023/01/07 13:45:25;;;;;;;5.23;4.73;;;;;;;22.19;32.96;95496.91;6170525;28;107477;-80
2023/01/07 13:48:33;;;;;;;5.47;4.97;;;;;;;22.18;32.77;95500.63;6171491;28;103336;-80
2023/01/07 13:51:38;;;;;;;4.33;4.00;;;;;;;22.17;33.12;95504.38;6163034;28;103019;-80
2023/01/07 13:54:56;;;;;;;5.17;4.43;;;;;;;21.91;32.87;95464.09;6169243;28;103363;-80
2023/01/07 13:57:59;;;;;;;5.27;4.87;;;;;;;22.14;33.05;95496.97;6170087;28;106346;-80
2023/01/07 14:01:05;;;;;;;4.33;4.03;;;;;;;22.03;33.01;95483.84;6169183;28;103109;-80
2023/01/07 14:04:35;;;;;;;4.57;4.17;;;;;;;22.03;32.80;95483.84;6160233;28;103242;-80
2023/01/07 14:07:46;;;;;;;5.03;4.63;;;;;;;21.94;33.16;95474.94;6159325;28;102892;-80
2023/01/07 14:10:53;;;;;;;4.47;4.07;;;;;;;22.04;32.71;95485.44;6168438;28;103292;-80
2023/01/07 14:14:05;;;;;;;4.83;4.43;;;;;;;21.90;32.90;95463.31;6164984;28;103205;-80
2023/01/07 14:17:19;;;;;;;5.10;4.63;;;;;;;22.10;33.27;95499.44;6168877;28;105341;-80
2023/01/07 14:20:32;;;;;;;4.30;4.00;;;;;;;22.03;33.03;95494.50;6170209;28;107013;-79
2023/01/07 14:23:42;;;;;;;4.30;3.90;;;;;;;22.08;33.26;95507.75;6169578;28;102671;-80
2023/01/07 14:26:56;;;;;;;4.10;3.80;;;;;;;22.08;33.21;95502.41;6162491;28;103404;-80
2023/01/07 14:30:04;;;;;;;4.27;3.93;;;;;;;22.06;33.33;95501.91;6169815;28;103323;-79
2023/01/07 14:33:21;;;;;;;4.00;3.70;;;;;;;22.07;33.08;95502.72;6169479;28;103231;-80
2023/01/07 14:37:07;;;;;;;4.20;3.90;;;;;;;22.05;33.38;95513.66;6166156;28;103440;-79
2023/01/07 14:40:49;;;;;;;4.13;3.77;;;;;;;22.04;33.26;95501.41;6168269;28;102819;-80